Time;durP1;ratioP1;P1;durP2;ratioP2;P2;SDS_P1;SDS_P2;PMS_P1;PMS_P2;Temp;Humidity;BMP_temperature;BMP_pressure;BME280_temperature;BME280_humidity;BME280_pressure;Samples;Min_cycle;Max_cycle;Signal;HPM_P1;HPM_P2
2023/07/06 00:02:04;;;;;;;5.30;2.35;;;;;;;;;;5029098;28;20050;-77
2023/07/06 00:04:30;;;;;;;5.50;2.67;;;;;;;;;;5049991;28;20076;-77
2023/07/06 00:06:58;;;;;;;3.72;2.22;;;;;;;;;;5051376;28;20045;-77
2023/07/06 00:09:25;;;;;;;4.45;2.35;;;;;;;;;;5050321;28;20041;-77
2023/07/06 00:11:52;;;;;;;5.30;2.60;;;;;;;;;;5046129;28;20049;-77
2023/07/06 00:14:18;;;;;;;4.70;2.50;;;;;;;;;;5025369;28;20088;-78
2023/07/06 00:16:47;;;;;;;4.88;2.25;;;;;;;;;;5015363;28;20056;-77
2023/07/06 00:19:17;;;;;;;5.45;2.35;;;;;;;;;;5017077;28;20045;-78
2023/07/06 00:21:44;;;;;;;4.45;2.30;;;;;;;;;;5035744;28;20049;-78
2023/07/06 00:24:15;;;;;;;4.68;2.33;;;;;;;;;;5035058;28;20103;-78
2023/07/06 00:26:42;;;;;;;5.65;2.92;;;;;;;;;;5035377;28;20045;-78
2023/07/06 00:29:09;;;;;;;5.43;2.58;;;;;;;;;;5027552;28;20100;-78
2023/07/06 00:31:50;;;;;;;6.32;2.67;;;;;;;;;;5031564;28;20053;-78
2023/07/06 00:34:18;;;;;;;5.10;2.88;;;;;;;;;;5031447;28;20050;-78
2023/07/06 00:36:46;;;;;;;4.60;2.53;;;;;;;;;;5033580;28;20099;-78
2023/07/06 00:39:14;;;;;;;6.07;2.80;;;;;;;;;;5033224;28;20045;-78
2023/07/06 00:41:40;;;;;;;5.85;2.53;;;;;;;;;;5032718;28;20076;-78
2023/07/06 00:44:41;;;;;;;5.63;2.70;;;;;;;;;;5032564;28;20132;-78
2023/07/06 00:47:11;;;;;;;6.13;2.85;;;;;;;;;;5033008;28;20057;-78
2023/07/06 00:49:39;;;;;;;5.47;2.97;;;;;;;;;;5033160;28;20119;-77
2023/07/06 00:52:06;;;;;;;5.55;2.60;;;;;;;;;;5033431;28;20046;-78
2023/07/06 00:54:40;;;;;;;4.95;2.67;;;;;;;;;;5032869;28;20415;-78
2023/07/06 00:57:07;;;;;;;5.68;2.70;;;;;;;;;;5033439;28;20045;-78
2023/07/06 00:59:39;;;;;;;4.30;2.22;;;;;;;;;;5021806;28;20588;-78
2023/07/06 01:02:08;;;;;;;5.53;3.00;;;;;;;;;;5017798;28;20091;-77
2023/07/06 01:04:35;;;;;;;6.05;3.00;;;;;;;;;;5033163;28;20053;-78
2023/07/06 01:07:02;;;;;;;7.13;3.85;;;;;;;;;;5032835;28;20407;-77
2023/07/06 01:09:29;;;;;;;6.18;3.70;;;;;;;;;;5032657;28;20498;-78
2023/07/06 01:11:58;;;;;;;7.70;5.32;;;;;;;;;;5031746;28;20476;-78
2023/07/06 01:14:27;;;;;;;8.77;4.60;;;;;;;;;;5031542;28;20480;-77
2023/07/06 01:17:03;;;;;;;7.47;4.40;;;;;;;;;;5032928;28;20046;-78
2023/07/06 01:19:55;;;;;;;7.80;5.00;;;;;;;;;;5032782;28;20504;-77
2023/07/06 01:22:36;;;;;;;7.03;4.63;;;;;;;;;;5032696;28;20088;-78
2023/07/06 01:25:21;;;;;;;7.70;4.93;;;;;;;;;;5031953;28;20045;-77
2023/07/06 01:28:06;;;;;;;9.32;5.70;;;;;;;;;;5032542;28;20124;-78
2023/07/06 01:31:04;;;;;;;7.97;5.50;;;;;;;;;;5032598;28;20129;-76
2023/07/06 01:33:36;;;;;;;8.23;5.30;;;;;;;;;;5013198;28;20045;-77
2023/07/06 01:36:09;;;;;;;9.82;5.63;;;;;;;;;;5012835;28;20050;-77
2023/07/06 01:38:36;;;;;;;9.40;5.70;;;;;;;;;;5012844;28;20052;-77
2023/07/06 01:41:03;;;;;;;9.50;6.22;;;;;;;;;;5012517;28;20050;-77
2023/07/06 01:43:29;;;;;;;8.75;6.05;;;;;;;;;;5012684;28;20136;-77
2023/07/06 01:45:56;;;;;;;9.15;5.30;;;;;;;;;;5012388;28;20060;-77
2023/07/06 01:48:24;;;;;;;7.18;4.45;;;;;;;;;;5012091;28;20568;-76
2023/07/06 01:50:59;;;;;;;6.97;3.72;;;;;;;;;;5011943;28;20527;-77
2023/07/06 01:53:33;;;;;;;7.07;3.38;;;;;;;;;;5012742;28;20144;-76
2023/07/06 01:56:05;;;;;;;6.25;3.42;;;;;;;;;;5031214;28;20049;-77
2023/07/06 01:58:36;;;;;;;5.07;2.97;;;;;;;;;;5036164;28;20046;-76
2023/07/06 02:01:08;;;;;;;6.13;2.90;;;;;;;;;;5022005;28;20081;-76
2023/07/06 02:03:36;;;;;;;6.35;3.25;;;;;;;;;;5016980;28;20084;-76
2023/07/06 02:06:07;;;;;;;6.03;3.53;;;;;;;;;;5016317;28;20060;-77
2023/07/06 02:08:36;;;;;;;5.72;3.53;;;;;;;;;;5016308;28;20046;-77
2023/07/06 02:11:03;;;;;;;6.53;3.22;;;;;;;;;;5016119;28;20042;-77
2023/07/06 02:13:33;;;;;;;5.88;3.40;;;;;;;;;;5015866;28;20133;-77
2023/07/06 02:15:59;;;;;;;5.50;2.92;;;;;;;;;;5025663;28;20049;-77
2023/07/06 02:18:27;;;;;;;5.30;3.13;;;;;;;;;;5035999;28;20489;-77
2023/07/06 02:20:54;;;;;;;5.15;2.88;;;;;;;;;;5035552;28;20045;-76
2023/07/06 02:23:23;;;;;;;5.38;3.00;;;;;;;;;;5035801;28;20076;-76
2023/07/06 02:25:49;;;;;;;6.15;3.40;;;;;;;;;;5028588;28;20108;-76
2023/07/06 02:28:16;;;;;;;6.07;2.92;;;;;;;;;;5015592;28;20133;-76
2023/07/06 02:30:44;;;;;;;6.32;3.45;;;;;;;;;;5035414;28;20512;-76
2023/07/06 02:33:11;;;;;;;5.57;3.35;;;;;;;;;;5035386;28;20412;-76
2023/07/06 02:35:37;;;;;;;5.70;3.00;;;;;;;;;;5034758;28;20137;-77
2023/07/06 02:38:04;;;;;;;5.72;3.20;;;;;;;;;;5035481;28;20125;-76
2023/07/06 02:40:33;;;;;;;5.43;3.35;;;;;;;;;;5018392;28;20129;-76
2023/07/06 02:42:59;;;;;;;6.95;3.70;;;;;;;;;;5015412;28;20423;-76
2023/07/06 02:45:26;;;;;;;6.72;3.00;;;;;;;;;;5015323;28;20092;-76
2023/07/06 02:47:53;;;;;;;6.10;3.47;;;;;;;;;;5015202;28;20129;-76
2023/07/06 02:50:20;;;;;;;6.35;3.65;;;;;;;;;;5015514;28;20060;-76
2023/07/06 02:52:47;;;;;;;5.50;3.45;;;;;;;;;;5015233;28;20048;-76
2023/07/06 02:55:14;;;;;;;6.63;3.42;;;;;;;;;;5014755;28;20456;-77
2023/07/06 02:57:42;;;;;;;7.93;3.83;;;;;;;;;;5023481;28;20076;-76
2023/07/06 03:00:13;;;;;;;5.88;3.65;;;;;;;;;;5015336;28;20126;-77
2023/07/06 03:02:39;;;;;;;5.90;3.47;;;;;;;;;;5015118;28;20085;-76
2023/07/06 03:05:07;;;;;;;5.90;3.58;;;;;;;;;;5015017;28;20077;-78
2023/07/06 03:07:34;;;;;;;6.13;3.60;;;;;;;;;;5014344;28;20046;-77
2023/07/06 03:10:01;;;;;;;6.13;3.75;;;;;;;;;;5015294;28;20050;-76
2023/07/06 03:12:29;;;;;;;6.43;3.47;;;;;;;;;;5015141;28;20137;-77
2023/07/06 03:14:58;;;;;;;6.35;3.60;;;;;;;;;;5015033;28;20045;-76
2023/07/06 03:17:24;;;;;;;6.22;3.60;;;;;;;;;;5014694;28;20057;-76
2023/07/06 03:19:52;;;;;;;6.32;3.70;;;;;;;;;;5027662;28;20468;-76
2023/07/06 03:22:18;;;;;;;6.63;3.58;;;;;;;;;;5034313;28;20041;-76
2023/07/06 03:24:45;;;;;;;5.80;3.70;;;;;;;;;;5034506;28;20128;-76
2023/07/06 03:27:11;;;;;;;5.70;3.60;;;;;;;;;;5034634;28;20071;-76
2023/07/06 03:29:38;;;;;;;7.20;4.22;;;;;;;;;;5034619;28;20037;-77
2023/07/06 03:32:07;;;;;;;7.10;4.22;;;;;;;;;;5034403;28;20132;-77
2023/07/06 03:34:34;;;;;;;7.68;4.45;;;;;;;;;;5034075;28;20053;-77
2023/07/06 03:37:02;;;;;;;7.53;4.20;;;;;;;;;;5034193;28;20137;-77
2023/07/06 03:39:29;;;;;;;9.43;4.70;;;;;;;;;;5033876;28;20046;-76
2023/07/06 03:41:57;;;;;;;8.75;5.00;;;;;;;;;;5033709;28;20235;-76
2023/07/06 03:44:24;;;;;;;7.63;4.47;;;;;;;;;;5034484;28;20571;-77
2023/07/06 03:46:50;;;;;;;7.55;4.75;;;;;;;;;;5036125;28;20100;-78
2023/07/06 03:49:18;;;;;;;7.18;4.65;;;;;;;;;;5035528;28;20510;-77
2023/07/06 03:51:46;;;;;;;8.40;5.05;;;;;;;;;;5015817;28;20050;-77
2023/07/06 03:54:12;;;;;;;7.78;4.30;;;;;;;;;;5015239;28;20048;-77
2023/07/06 03:56:39;;;;;;;10.13;5.35;;;;;;;;;;5015658;28;20049;-78
2023/07/06 03:59:06;;;;;;;8.88;5.00;;;;;;;;;;5014644;28;20042;-77
2023/07/06 04:01:33;;;;;;;7.18;4.63;;;;;;;;;;5014411;28;20497;-78
2023/07/06 04:04:00;;;;;;;6.68;4.50;;;;;;;;;;5024389;28;20046;-78
2023/07/06 04:06:29;;;;;;;7.05;4.40;;;;;;;;;;5034374;28;20053;-77
2023/07/06 04:08:57;;;;;;;7.60;3.60;;;;;;;;;;5034671;28;20041;-78
2023/07/06 04:11:24;;;;;;;7.85;3.72;;;;;;;;;;5034274;28;20103;-77
2023/07/06 04:13:57;;;;;;;6.53;3.38;;;;;;;;;;5035230;28;20132;-77
2023/07/06 04:16:26;;;;;;;7.28;3.88;;;;;;;;;;5034308;28;20045;-77
2023/07/06 04:18:53;;;;;;;6.87;3.00;;;;;;;;;;5032128;28;20412;-77
2023/07/06 04:21:21;;;;;;;5.20;3.20;;;;;;;;;;5030722;28;20573;-77
2023/07/06 04:23:49;;;;;;;5.43;3.13;;;;;;;;;;5035183;28;20451;-78
2023/07/06 04:26:19;;;;;;;5.53;3.33;;;;;;;;;;5038727;28;20511;-77
2023/07/06 04:28:47;;;;;;;5.18;3.08;;;;;;;;;;5039654;28;20119;-77
2023/07/06 04:31:15;;;;;;;7.63;3.33;;;;;;;;;;5025758;28;20053;-76
2023/07/06 04:33:43;;;;;;;6.40;3.45;;;;;;;;;;5021250;28;20493;-76
2023/07/06 04:36:10;;;;;;;6.40;3.47;;;;;;;;;;5024112;28;20085;-78
2023/07/06 04:38:36;;;;;;;5.97;3.15;;;;;;;;;;5023511;28;20056;-77
2023/07/06 04:41:04;;;;;;;5.43;3.60;;;;;;;;;;5037519;28;20076;-77
2023/07/06 04:43:31;;;;;;;5.30;3.03;;;;;;;;;;5034304;28;20060;-75
2023/07/06 04:45:58;;;;;;;6.70;3.47;;;;;;;;;;5034184;28;20057;-78
2023/07/06 04:48:26;;;;;;;5.82;3.17;;;;;;;;;;5034354;28;20128;-78
2023/07/06 04:50:53;;;;;;;6.43;3.22;;;;;;;;;;5027954;28;20133;-77
2023/07/06 04:53:20;;;;;;;7.07;3.95;;;;;;;;;;5013691;28;20049;-78
2023/07/06 04:55:48;;;;;;;6.20;3.38;;;;;;;;;;5012798;28;20507;-76
2023/07/06 04:58:19;;;;;;;7.90;3.80;;;;;;;;;;5014110;28;20041;-78
2023/07/06 05:00:46;;;;;;;6.65;3.40;;;;;;;;;;5031102;28;20464;-77
2023/07/06 05:03:13;;;;;;;6.22;3.60;;;;;;;;;;5033604;28;20081;-78
2023/07/06 05:05:42;;;;;;;5.82;3.20;;;;;;;;;;5016126;28;20497;-78
2023/07/06 05:08:10;;;;;;;5.95;3.38;;;;;;;;;;5013112;28;20050;-76
2023/07/06 05:10:37;;;;;;;7.40;3.50;;;;;;;;;;5015351;28;20124;-77
2023/07/06 05:13:05;;;;;;;5.78;3.10;;;;;;;;;;5032902;28;20137;-76
2023/07/06 05:15:33;;;;;;;6.80;3.67;;;;;;;;;;5033001;28;20141;-77
2023/07/06 05:18:01;;;;;;;5.95;3.33;;;;;;;;;;5032696;28;20067;-78
2023/07/06 05:20:28;;;;;;;6.88;3.97;;;;;;;;;;5028187;28;20042;-78
2023/07/06 05:22:54;;;;;;;7.85;4.30;;;;;;;;;;5031607;28;20049;-77
2023/07/06 05:25:21;;;;;;;9.80;5.30;;;;;;;;;;5033200;28;20053;-78
2023/07/06 05:27:49;;;;;;;11.73;5.38;;;;;;;;;;5032726;28;20544;-78
2023/07/06 05:30:16;;;;;;;9.25;5.70;;;;;;;;;;5033166;28;20068;-77
2023/07/06 05:32:44;;;;;;;10.55;4.95;;;;;;;;;;5033342;28;20076;-77
2023/07/06 05:35:13;;;;;;;7.45;4.30;;;;;;;;;;5033530;28;20052;-78
2023/07/06 05:37:41;;;;;;;6.15;3.35;;;;;;;;;;5040094;28;20052;-75
2023/07/06 05:40:10;;;;;;;8.40;4.28;;;;;;;;;;5034951;28;20056;-76
2023/07/06 05:42:36;;;;;;;5.60;3.47;;;;;;;;;;5033357;28;20129;-77
2023/07/06 05:45:04;;;;;;;5.75;2.80;;;;;;;;;;5064179;22;20140;-78
2023/07/06 05:47:31;;;;;;;4.93;2.90;;;;;;;;;;5058853;28;20117;-80
2023/07/06 05:49:59;;;;;;;6.05;2.70;;;;;;;;;;5037514;28;20107;-79
2023/07/06 05:52:26;;;;;;;5.88;2.67;;;;;;;;;;5050708;28;20041;-78
2023/07/06 05:54:53;;;;;;;5.32;2.63;;;;;;;;;;5063246;28;20056;-79
2023/07/06 05:57:20;;;;;;;5.53;2.70;;;;;;;;;;5070361;28;20041;-76
2023/07/06 05:59:46;;;;;;;5.38;2.65;;;;;;;;;;5053805;28;20065;-79
2023/07/06 06:02:17;;;;;;;3.97;2.17;;;;;;;;;;5044017;28;20119;-79
2023/07/06 06:04:44;;;;;;;6.18;2.83;;;;;;;;;;5056274;28;20057;-78
2023/07/06 06:07:12;;;;;;;6.20;2.72;;;;;;;;;;5057130;28;20152;-79
2023/07/06 06:09:42;;;;;;;6.95;2.85;;;;;;;;;;5057628;28;20063;-79
2023/07/06 06:12:11;;;;;;;5.15;2.25;;;;;;;;;;5057145;28;20128;-79
2023/07/06 06:14:37;;;;;;;5.05;2.65;;;;;;;;;;5058201;28;20120;-80
2023/07/06 06:17:04;;;;;;;5.32;2.42;;;;;;;;;;5059349;28;20492;-79
2023/07/06 06:19:37;;;;;;;4.28;2.20;;;;;;;;;;5058605;28;20124;-79
2023/07/06 06:22:04;;;;;;;4.47;2.65;;;;;;;;;;5064877;28;20438;-80
2023/07/06 06:24:32;;;;;;;5.45;2.70;;;;;;;;;;5057077;28;20053;-79
2023/07/06 06:27:00;;;;;;;4.45;2.50;;;;;;;;;;5037647;28;20058;-77
2023/07/06 06:29:28;;;;;;;4.80;2.00;;;;;;;;;;5037364;28;20057;-80
2023/07/06 06:31:55;;;;;;;4.60;2.17;;;;;;;;;;5050432;28;20052;-79
2023/07/06 06:34:23;;;;;;;7.50;2.58;;;;;;;;;;5051269;28;20544;-81
2023/07/06 06:36:49;;;;;;;6.93;2.15;;;;;;;;;;5052518;28;20049;-78
2023/07/06 06:39:16;;;;;;;5.30;2.80;;;;;;;;;;5058197;28;20052;-80
2023/07/06 06:41:44;;;;;;;7.10;3.08;;;;;;;;;;5053188;28;20095;-80
2023/07/06 06:44:12;;;;;;;8.40;4.18;;;;;;;;;;5059128;28;20140;-79
2023/07/06 06:46:38;;;;;;;6.22;2.90;;;;;;;;;;5060541;28;20036;-80
2023/07/06 06:49:05;;;;;;;5.63;2.92;;;;;;;;;;5061270;28;20049;-80
2023/07/06 06:51:32;;;;;;;7.30;3.38;;;;;;;;;;5054598;28;20080;-80
2023/07/06 06:53:58;;;;;;;7.30;3.25;;;;;;;;;;5051111;28;20081;-80
2023/07/06 06:56:31;;;;;;;4.53;2.53;;;;;;;;;;5062702;28;20104;-79
2023/07/06 06:59:00;;;;;;;5.63;2.42;;;;;;;;;;5045988;28;20054;-79
2023/07/06 07:01:27;;;;;;;4.70;2.58;;;;;;;;;;5045820;28;20058;-80
2023/07/06 07:03:54;;;;;;;7.10;2.50;;;;;;;;;;5062978;28;20087;-76
2023/07/06 07:06:22;;;;;;;6.07;2.72;;;;;;;;;;5060429;28;20052;-80
2023/07/06 07:08:50;;;;;;;5.07;2.53;;;;;;;;;;5052203;28;20500;-79
2023/07/06 07:11:19;;;;;;;5.35;2.40;;;;;;;;;;5062098;28;20083;-79
2023/07/06 07:13:47;;;;;;;5.55;2.70;;;;;;;;;;5061564;28;20048;-79
2023/07/06 07:16:16;;;;;;;4.43;2.10;;;;;;;;;;5051407;28;20049;-80
2023/07/06 07:18:44;;;;;;;5.38;3.38;;;;;;;;;;5054923;28;21117;-78
2023/07/06 07:21:12;;;;;;;5.57;2.25;;;;;;;;;;5058788;28;20055;-80
2023/07/06 07:23:42;;;;;;;4.97;2.40;;;;;;;;;;5059016;28;20267;-77
2023/07/06 07:26:09;;;;;;;5.47;2.75;;;;;;;;;;5054590;28;20072;-77
2023/07/06 07:28:37;;;;;;;5.20;2.55;;;;;;;;;;5050843;28;20049;-78
2023/07/06 07:31:06;;;;;;;10.43;3.05;;;;;;;;;;5059225;28;20041;-85
2023/07/06 07:33:37;;;;;;;8.80;3.83;;;;;;;;;;5061461;28;20049;-79
2023/07/06 07:36:04;;;;;;;;;;;;;;;;;;5068209;28;20048;-78
2023/07/06 07:38:33;;;;;;;4.65;2.47;;;;;;;;;;5050589;28;19921;-78
2023/07/06 07:41:02;;;;;;;5.03;2.92;;;;;;;;;;5048609;28;20475;-78
2023/07/06 07:43:31;;;;;;;6.57;2.93;;;;;;;;;;5053729;28;20072;-77
2023/07/06 07:46:03;;;;;;;6.30;2.65;;;;;;;;;;5040738;28;20053;-76
2023/07/06 07:48:32;;;;;;;6.15;2.88;;;;;;;;;;5054591;28;20053;-76
2023/07/06 07:51:04;;;;;;;5.90;2.88;;;;;;;;;;5035304;28;20049;-76
2023/07/06 07:53:46;;;;;;;5.90;2.90;;;;;;;;;;5035217;28;20571;-78
2023/07/06 07:56:15;;;;;;;5.38;2.65;;;;;;;;;;5037886;28;20492;-77
2023/07/06 07:58:46;;;;;;;5.80;2.55;;;;;;;;;;5042564;28;20407;-82
2023/07/06 08:01:14;;;;;;;4.72;2.53;;;;;;;;;;5053710;28;20072;-82
2023/07/06 08:03:42;;;;;;;6.28;2.60;;;;;;;;;;5054514;28;20045;-77
2023/07/06 08:06:14;;;;;;;4.40;2.40;;;;;;;;;;5036381;28;20656;-78
2023/07/06 08:08:44;;;;;;;5.78;2.72;;;;;;;;;;5035221;28;20049;-80
2023/07/06 08:11:16;;;;;;;4.38;2.50;;;;;;;;;;5037125;28;20053;-77
2023/07/06 08:13:50;;;;;;;5.82;2.97;;;;;;;;;;5043401;28;20140;-78
2023/07/06 08:16:19;;;;;;;4.78;2.60;;;;;;;;;;5050435;28;20064;-83
2023/07/06 08:18:48;;;;;;;5.25;2.70;;;;;;;;;;5057560;28;20080;-87
2023/07/06 08:21:16;;;;;;;6.07;3.30;;;;;;;;;;5056153;28;20676;-86
2023/07/06 08:23:48;;;;;;;7.20;3.00;;;;;;;;;;5051587;28;20060;-82
2023/07/06 08:26:17;;;;;;;6.18;3.13;;;;;;;;;;5060350;28;20048;-79
2023/07/06 08:28:46;;;;;;;6.38;2.70;;;;;;;;;;5044748;28;20061;-78
2023/07/06 08:31:15;;;;;;;5.45;2.92;;;;;;;;;;5047704;28;20053;-77
2023/07/06 08:33:42;;;;;;;5.85;2.75;;;;;;;;;;5051189;28;20053;-78
2023/07/06 08:36:09;;;;;;;4.72;2.53;;;;;;;;;;5055713;28;20067;-77
2023/07/06 08:38:38;;;;;;;6.72;2.70;;;;;;;;;;5054701;28;20045;-77
2023/07/06 08:41:13;;;;;;;5.20;2.92;;;;;;;;;;5054858;28;20049;-78
2023/07/06 08:43:41;;;;;;;6.32;2.85;;;;;;;;;;5054919;28;20060;-78
2023/07/06 08:46:11;;;;;;;5.57;3.13;;;;;;;;;;5056671;28;20665;-77
2023/07/06 08:48:39;;;;;;;5.10;2.90;;;;;;;;;;5061343;28;20047;-78
2023/07/06 08:51:15;;;;;;;5.22;2.72;;;;;;;;;;5033659;28;20045;-78
2023/07/06 08:53:51;;;;;;;5.28;2.70;;;;;;;;;;5050752;28;20076;-78
2023/07/06 08:56:19;;;;;;;5.50;2.78;;;;;;;;;;5053693;28;20463;-79
2023/07/06 08:58:46;;;;;;;5.53;2.67;;;;;;;;;;5053627;28;20132;-78
2023/07/06 09:01:16;;;;;;;4.82;2.47;;;;;;;;;;5054415;28;20041;-77
2023/07/06 09:03:46;;;;;;;4.30;2.50;;;;;;;;;;5054031;28;20052;-78
2023/07/06 09:06:18;;;;;;;5.13;2.50;;;;;;;;;;5058187;28;20067;-77
2023/07/06 09:08:48;;;;;;;5.35;2.88;;;;;;;;;;5062390;28;20049;-77
2023/07/06 09:11:15;;;;;;;5.15;3.00;;;;;;;;;;5056521;28;20057;-78
2023/07/06 09:13:46;;;;;;;5.82;3.55;;;;;;;;;;5057580;28;20104;-79
2023/07/06 09:16:18;;;;;;;8.70;3.17;;;;;;;;;;5057154;28;20091;-78
2023/07/06 09:18:45;;;;;;;6.22;2.97;;;;;;;;;;5056112;28;20104;-79
2023/07/06 09:21:13;;;;;;;5.85;2.55;;;;;;;;;;5059449;28;20068;-78
2023/07/06 09:23:40;;;;;;;20.90;5.15;;;;;;;;;;5044107;28;20113;-78
2023/07/06 09:26:16;;;;;;;7.60;3.00;;;;;;;;;;5062012;28;20472;-78
2023/07/06 09:28:43;;;;;;;6.78;3.00;;;;;;;;;;5055489;28;20049;-77
2023/07/06 09:31:21;;;;;;;5.18;2.67;;;;;;;;;;5050439;28;20045;-77
2023/07/06 09:33:50;;;;;;;6.18;3.00;;;;;;;;;;5049034;28;20057;-78
2023/07/06 09:36:22;;;;;;;6.45;4.10;;;;;;;;;;5064230;28;20103;-77
2023/07/06 09:38:48;;;;;;;10.73;5.57;;;;;;;;;;5068024;28;20048;-77
2023/07/06 09:41:21;;;;;;;6.55;3.85;;;;;;;;;;5066080;28;20098;-78
2023/07/06 09:44:08;;;;;;;6.50;3.72;;;;;;;;;;5064008;28;20135;-78
2023/07/06 09:46:37;;;;;;;9.20;5.45;;;;;;;;;;5068631;28;20057;-77
2023/07/06 09:49:11;;;;;;;6.82;3.80;;;;;;;;;;5067761;28;20103;-78
2023/07/06 09:51:43;;;;;;;6.03;3.38;;;;;;;;;;5068316;28;20037;-78
2023/07/06 09:54:17;;;;;;;5.13;2.78;;;;;;;;;;5067064;28;20049;-78
2023/07/06 09:56:47;;;;;;;5.30;3.13;;;;;;;;;;5063202;28;20056;-79
2023/07/06 09:59:13;;;;;;;9.43;3.67;;;;;;;;;;5052964;28;20079;-79
2023/07/06 10:01:48;;;;;;;6.15;3.50;;;;;;;;;;5044890;28;20132;-79
2023/07/06 10:04:43;;;;;;;4.65;3.20;;;;;;;;;;5053265;28;20151;-79
2023/07/06 10:07:16;;;;;;;4.95;2.78;;;;;;;;;;5037108;28;20137;-79
2023/07/06 10:09:51;;;;;;;5.72;3.10;;;;;;;;;;5045949;28;20072;-81
2023/07/06 10:12:30;;;;;;;5.93;3.30;;;;;;;;;;5040171;28;20428;-79
2023/07/06 10:15:00;;;;;;;6.68;3.45;;;;;;;;;;5040855;28;20053;-79
2023/07/06 10:17:37;;;;;;;5.97;3.10;;;;;;;;;;5047975;28;20053;-78
2023/07/06 10:20:17;;;;;;;5.22;2.78;;;;;;;;;;5049231;28;20053;-81
2023/07/06 10:23:06;;;;;;;6.50;3.05;;;;;;;;;;5056294;28;20170;-78
2023/07/06 10:25:38;;;;;;;4.80;2.72;;;;;;;;;;5052494;28;20049;-79
2023/07/06 10:28:13;;;;;;;5.80;3.08;;;;;;;;;;5051545;28;20495;-79
2023/07/06 10:30:49;;;;;;;12.18;4.18;;;;;;;;;;5038472;28;20068;-78
2023/07/06 10:33:31;;;;;;;7.88;3.97;;;;;;;;;;5044977;28;20088;-79
2023/07/06 10:36:12;;;;;;;5.40;3.08;;;;;;;;;;5050051;28;20106;-79
2023/07/06 10:38:38;;;;;;;7.03;3.08;;;;;;;;;;5048156;28;20038;-79
2023/07/06 10:41:25;;;;;;;5.32;2.95;;;;;;;;;;5052673;28;20049;-79
2023/07/06 10:43:59;;;;;;;5.35;3.00;;;;;;;;;;5047595;28;20045;-80
2023/07/06 10:46:34;;;;;;;5.13;3.30;;;;;;;;;;5053346;28;20037;-79
2023/07/06 10:49:16;;;;;;;7.43;4.18;;;;;;;;;;5051402;28;20060;-80
2023/07/06 10:51:51;;;;;;;5.75;3.30;;;;;;;;;;5056741;28;20064;-79
2023/07/06 10:54:52;;;;;;;5.50;3.33;;;;;;;;;;5051103;28;20051;-80
2023/07/06 10:57:36;;;;;;;6.35;2.75;;;;;;;;;;5015348;28;20680;-78
2023/07/06 11:00:15;;;;;;;6.07;3.35;;;;;;;;;;5059681;28;20059;-78
2023/07/06 11:03:06;;;;;;;5.07;3.33;;;;;;;;;;5057757;28;20053;-78
2023/07/06 11:05:35;;;;;;;6.00;3.60;;;;;;;;;;5050652;28;20080;-82
2023/07/06 11:08:05;;;;;;;6.45;3.50;;;;;;;;;;5051573;28;20053;-77
2023/07/06 11:10:44;;;;;;;6.07;3.50;;;;;;;;;;5054779;28;20048;-77
2023/07/06 11:13:25;;;;;;;6.68;3.65;;;;;;;;;;5051684;28;20127;-80
2023/07/06 11:16:01;;;;;;;5.40;3.03;;;;;;;;;;5060424;28;20056;-76
2023/07/06 11:18:33;;;;;;;5.47;3.30;;;;;;;;;;5058488;28;20037;-77
2023/07/06 11:21:07;;;;;;;4.60;2.95;;;;;;;;;;5061475;28;20049;-77
2023/07/06 11:23:41;;;;;;;6.03;3.00;;;;;;;;;;5070420;28;20037;-78
2023/07/06 11:26:19;;;;;;;6.22;3.38;;;;;;;;;;5062964;28;20045;-78
2023/07/06 11:28:46;;;;;;;5.97;3.45;;;;;;;;;;5045426;28;20045;-81
2023/07/06 11:31:34;;;;;;;5.22;3.05;;;;;;;;;;5052621;28;20182;-85
2023/07/06 11:34:13;;;;;;;6.43;3.75;;;;;;;;;;5051151;28;20076;-79
2023/07/06 11:36:49;;;;;;;7.00;4.28;;;;;;;;;;5049860;28;20135;-78
2023/07/06 11:39:26;;;;;;;5.68;3.15;;;;;;;;;;5051645;28;20558;-79
2023/07/06 11:41:57;;;;;;;7.60;3.50;;;;;;;;;;5052032;28;20072;-80
2023/07/06 11:44:39;;;;;;;6.18;2.97;;;;;;;;;;5050505;28;20482;-79
2023/07/06 11:47:37;;;;;;;5.90;4.00;;;;;;;;;;5033984;28;20046;-78
2023/07/06 11:50:11;;;;;;;6.00;3.35;;;;;;;;;;5044061;28;20044;-79
2023/07/06 11:52:42;;;;;;;6.07;3.47;;;;;;;;;;5051243;28;20047;-81
2023/07/06 11:55:28;;;;;;;8.00;4.00;;;;;;;;;;5046732;28;20080;-80
2023/07/06 11:58:04;;;;;;;7.70;3.67;;;;;;;;;;5055452;28;20045;-79
2023/07/06 12:00:48;;;;;;;6.20;3.20;;;;;;;;;;5047617;28;20048;-80
2023/07/06 12:03:17;;;;;;;6.47;3.85;;;;;;;;;;5046297;28;20051;-79
2023/07/06 12:05:47;;;;;;;7.45;3.50;;;;;;;;;;5045747;28;20520;-80
2023/07/06 12:08:19;;;;;;;5.88;3.25;;;;;;;;;;5053254;28;20087;-80
2023/07/06 12:10:50;;;;;;;7.75;3.83;;;;;;;;;;5056016;28;20486;-81
2023/07/06 12:13:25;;;;;;;6.90;3.75;;;;;;;;;;5047662;28;20440;-79
2023/07/06 12:15:57;;;;;;;6.03;3.50;;;;;;;;;;5061744;28;20049;-78
2023/07/06 12:18:26;;;;;;;6.00;3.45;;;;;;;;;;5052063;28;20056;-78
2023/07/06 12:20:54;;;;;;;7.53;4.03;;;;;;;;;;5040138;28;20054;-80
2023/07/06 12:23:22;;;;;;;7.57;3.80;;;;;;;;;;5049260;28;20048;-80
2023/07/06 12:25:49;;;;;;;6.43;3.58;;;;;;;;;;5050664;28;20132;-81
2023/07/06 12:28:16;;;;;;;6.32;3.70;;;;;;;;;;5042416;28;20049;-81
2023/07/06 12:30:49;;;;;;;7.32;3.70;;;;;;;;;;5047216;28;20045;-80
2023/07/06 12:33:17;;;;;;;7.43;3.63;;;;;;;;;;5056301;28;20049;-80
2023/07/06 12:35:46;;;;;;;6.65;3.70;;;;;;;;;;5049786;28;20044;-80
2023/07/06 12:38:15;;;;;;;7.68;4.00;;;;;;;;;;5036776;28;20571;-80
2023/07/06 12:40:42;;;;;;;5.82;4.03;;;;;;;;;;5034011;28;20119;-81
2023/07/06 12:43:19;;;;;;;6.10;3.42;;;;;;;;;;5034903;28;20037;-81
2023/07/06 12:45:46;;;;;;;6.18;3.42;;;;;;;;;;5036287;28;20063;-78
2023/07/06 12:48:23;;;;;;;5.22;3.35;;;;;;;;;;5038180;28;20045;-80
2023/07/06 12:50:54;;;;;;;5.93;3.05;;;;;;;;;;5038809;28;20409;-79
2023/07/06 12:53:27;;;;;;;7.40;3.90;;;;;;;;;;5055132;28;20064;-80
2023/07/06 12:56:00;;;;;;;6.20;3.95;;;;;;;;;;5042889;28;20068;-80
2023/07/06 12:58:32;;;;;;;6.50;3.58;;;;;;;;;;5050973;28;20045;-80
2023/07/06 13:01:06;;;;;;;5.55;3.40;;;;;;;;;;5047366;28;20096;-79
2023/07/06 13:03:46;;;;;;;6.25;3.92;;;;;;;;;;5032520;28;20106;-79
2023/07/06 13:06:15;;;;;;;6.60;3.80;;;;;;;;;;5052294;28;20071;-78
2023/07/06 13:08:44;;;;;;;6.15;3.70;;;;;;;;;;5061527;28;20131;-79
2023/07/06 13:11:12;;;;;;;5.38;3.35;;;;;;;;;;5072120;28;20090;-80
2023/07/06 13:13:42;;;;;;;6.47;3.10;;;;;;;;;;5064715;28;20053;-79
2023/07/06 13:16:13;;;;;;;5.18;3.05;;;;;;;;;;5048523;28;20052;-79
2023/07/06 13:18:40;;;;;;;6.50;3.40;;;;;;;;;;5054271;28;20324;-80
2023/07/06 13:21:17;;;;;;;5.53;3.45;;;;;;;;;;5055670;28;20045;-80
2023/07/06 13:23:45;;;;;;;7.43;3.75;;;;;;;;;;5050028;28;20116;-80
2023/07/06 13:26:11;;;;;;;5.72;3.70;;;;;;;;;;5042932;28;20121;-80
2023/07/06 13:28:39;;;;;;;6.35;3.58;;;;;;;;;;5048888;28;20113;-79
2023/07/06 13:31:12;;;;;;;6.18;3.60;;;;;;;;;;5047757;28;20048;-80
2023/07/06 13:33:40;;;;;;;5.97;3.65;;;;;;;;;;5034432;28;20046;-80
2023/07/06 13:36:13;;;;;;;6.63;3.85;;;;;;;;;;5035704;28;20049;-81
2023/07/06 13:38:41;;;;;;;5.50;3.47;;;;;;;;;;5035634;28;20514;-81
2023/07/06 13:41:12;;;;;;;5.45;3.30;;;;;;;;;;5036205;28;20095;-81
2023/07/06 13:43:39;;;;;;;6.30;3.85;;;;;;;;;;5034228;28;20054;-81
2023/07/06 13:46:09;;;;;;;6.07;3.30;;;;;;;;;;5034451;28;20095;-78
2023/07/06 13:48:36;;;;;;;6.70;3.58;;;;;;;;;;5035271;28;20049;-78
2023/07/06 13:51:04;;;;;;;6.47;3.97;;;;;;;;;;5053594;28;20503;-75
2023/07/06 13:53:31;;;;;;;7.28;3.38;;;;;;;;;;5059582;28;20495;-83
2023/07/06 13:55:59;;;;;;;6.07;3.17;;;;;;;;;;5060879;28;20052;-80
2023/07/06 13:58:28;;;;;;;4.88;3.17;;;;;;;;;;5061757;28;20088;-80
2023/07/06 14:00:56;;;;;;;6.68;3.42;;;;;;;;;;5061361;28;20056;-80
2023/07/06 14:03:31;;;;;;;5.30;3.25;;;;;;;;;;5078572;23;20057;-82
2023/07/06 14:05:58;;;;;;;6.13;3.58;;;;;;;;;;5024300;28;20737;-83
2023/07/06 14:08:26;;;;;;;5.70;3.58;;;;;;;;;;5022567;28;20046;-82
2023/07/06 14:10:54;;;;;;;6.00;3.53;;;;;;;;;;5020925;28;20049;-83
2023/07/06 14:13:24;;;;;;;5.05;3.30;;;;;;;;;;5022278;28;20046;-82
2023/07/06 14:15:50;;;;;;;5.93;3.03;;;;;;;;;;5022762;28;20169;-82
2023/07/06 14:18:17;;;;;;;5.45;3.20;;;;;;;;;;5023452;28;20074;-84
2023/07/06 14:20:46;;;;;;;8.05;3.40;;;;;;;;;;5036055;28;20046;-82
2023/07/06 14:23:14;;;;;;;6.22;3.58;;;;;;;;;;5035282;28;20077;-83
2023/07/06 14:25:42;;;;;;;6.65;3.10;;;;;;;;;;5027647;28;20041;-82
2023/07/06 14:28:10;;;;;;;6.35;3.55;;;;;;;;;;5025496;28;20042;-85
2023/07/06 14:30:38;;;;;;;6.32;3.70;;;;;;;;;;5021477;28;20052;-82
2023/07/06 14:33:07;;;;;;;6.93;3.45;;;;;;;;;;5000845;28;20046;-80
2023/07/06 14:35:35;;;;;;;5.63;3.20;;;;;;;;;;5002047;28;20497;-84
2023/07/06 14:38:02;;;;;;;5.78;3.40;;;;;;;;;;5006030;28;20101;-83
2023/07/06 14:40:28;;;;;;;7.55;3.60;;;;;;;;;;5016275;28;20049;-82
2023/07/06 14:42:57;;;;;;;9.30;3.92;;;;;;;;;;5022989;28;20042;-83
2023/07/06 14:45:24;;;;;;;6.45;3.55;;;;;;;;;;5023967;28;20046;-87
2023/07/06 14:47:52;;;;;;;4.72;3.03;;;;;;;;;;5026085;28;20069;-83
2023/07/06 14:50:21;;;;;;;6.30;3.50;;;;;;;;;;5016826;28;20042;-82
2023/07/06 14:52:48;;;;;;;6.57;3.65;;;;;;;;;;5018906;28;20052;-83
2023/07/06 14:55:14;;;;;;;6.55;3.38;;;;;;;;;;5021285;28;20084;-82
2023/07/06 14:57:41;;;;;;;5.72;3.33;;;;;;;;;;5023234;28;20053;-82
2023/07/06 15:00:11;;;;;;;6.40;4.13;;;;;;;;;;5022300;28;20042;-83
2023/07/06 15:02:38;;;;;;;7.13;3.67;;;;;;;;;;5023351;28;20540;-83